sensor_id;sensor_type;location;lat;lon;timestamp;temperature;humidity
20284;DHT22;10301;50.832;4.080;2023-06-22T00:01:06;20.90;3.90
20284;DHT22;10301;50.832;4.080;2023-06-22T00:03:31;21.00;1.00
20284;DHT22;10301;50.832;4.080;2023-06-22T00:05:57;21.00;1.00
20284;DHT22;10301;50.832;4.080;2023-06-22T00:08:23;20.80;7.10
20284;DHT22;10301;50.832;4.080;2023-06-22T00:10:48;20.60;14.50
20284;DHT22;10301;50.832;4.080;2023-06-22T00:13:14;20.40;24.00
20284;DHT22;10301;50.832;4.080;2023-06-22T00:15:41;20.50;23.10
20284;DHT22;10301;50.832;4.080;2023-06-22T00:18:08;20.40;27.00
20284;DHT22;10301;50.832;4.080;2023-06-22T00:20:34;20.30;30.50
20284;DHT22;10301;50.832;4.080;2023-06-22T00:23:03;20.50;28.90
20284;DHT22;10301;50.832;4.080;2023-06-22T00:25:36;20.70;17.90
20284;DHT22;10301;50.832;4.080;2023-06-22T00:28:03;20.70;9.30
20284;DHT22;10301;50.832;4.080;2023-06-22T00:30:30;20.50;17.70
20284;DHT22;10301;50.832;4.080;2023-06-22T00:32:55;20.60;12.80
20284;DHT22;10301;50.832;4.080;2023-06-22T00:35:21;20.50;23.20
20284;DHT22;10301;50.832;4.080;2023-06-22T00:37:47;20.30;30.10
20284;DHT22;10301;50.832;4.080;2023-06-22T00:40:12;20.30;32.10
20284;DHT22;10301;50.832;4.080;2023-06-22T00:42:38;20.40;26.30
20284;DHT22;10301;50.832;4.080;2023-06-22T00:45:05;20.30;30.30
20284;DHT22;10301;50.832;4.080;2023-06-22T00:47:31;20.30;30.10
20284;DHT22;10301;50.832;4.080;2023-06-22T00:49:58;20.20;37.00
20284;DHT22;10301;50.832;4.080;2023-06-22T00:52:24;20.10;44.00
20284;DHT22;10301;50.832;4.080;2023-06-22T00:54:55;20.40;32.00
20284;DHT22;10301;50.832;4.080;2023-06-22T00:57:22;20.40;23.90
20284;DHT22;10301;50.832;4.080;2023-06-22T00:59:53;20.50;18.80
20284;DHT22;10301;50.832;4.080;2023-06-22T01:02:19;20.50;19.10
20284;DHT22;10301;50.832;4.080;2023-06-22T01:04:45;20.30;32.80
20284;DHT22;10301;50.832;4.080;2023-06-22T01:10:16;20.50;14.90
20284;DHT22;10301;50.832;4.080;2023-06-22T01:12:45;20.70;8.20
20284;DHT22;10301;50.832;4.080;2023-06-22T01:15:21;20.70;1.90
20284;DHT22;10301;50.832;4.080;2023-06-22T01:17:49;20.40;12.50
20284;DHT22;10301;50.832;4.080;2023-06-22T01:20:17;20.20;18.20
20284;DHT22;10301;50.832;4.080;2023-06-22T01:26:08;20.30;18.00
20284;DHT22;10301;50.832;4.080;2023-06-22T01:31:13;20.20;23.30
20284;DHT22;10301;50.832;4.080;2023-06-22T01:33:43;20.30;18.80
20284;DHT22;10301;50.832;4.080;2023-06-22T01:36:10;20.30;18.70
20284;DHT22;10301;50.832;4.080;2023-06-22T01:38:37;20.30;20.40
20284;DHT22;10301;50.832;4.080;2023-06-22T01:41:04;20.30;14.50
20284;DHT22;10301;50.832;4.080;2023-06-22T01:43:30;20.20;18.80
20284;DHT22;10301;50.832;4.080;2023-06-22T01:45:57;20.20;19.00
20284;DHT22;10301;50.832;4.080;2023-06-22T01:48:23;20.10;22.60
20284;DHT22;10301;50.832;4.080;2023-06-22T01:50:52;20.10;23.00
20284;DHT22;10301;50.832;4.080;2023-06-22T01:53:19;20.20;14.60
20284;DHT22;10301;50.832;4.080;2023-06-22T01:55:45;20.30;12.60
20284;DHT22;10301;50.832;4.080;2023-06-22T01:58:11;20.40;11.70
20284;DHT22;10301;50.832;4.080;2023-06-22T02:00:38;20.60;1.00
20284;DHT22;10301;50.832;4.080;2023-06-22T02:03:11;20.70;1.00
20284;DHT22;10301;50.832;4.080;2023-06-22T02:05:46;20.70;1.00
20284;DHT22;10301;50.832;4.080;2023-06-22T02:08:24;20.50;1.00
20284;DHT22;10301;50.832;4.080;2023-06-22T02:10:52;20.70;1.00
20284;DHT22;10301;50.832;4.080;2023-06-22T02:13:20;20.70;1.00
20284;DHT22;10301;50.832;4.080;2023-06-22T02:15:47;20.60;1.00
20284;DHT22;10301;50.832;4.080;2023-06-22T02:18:14;20.30;17.40
20284;DHT22;10301;50.832;4.080;2023-06-22T02:20:39;20.10;24.60
20284;DHT22;10301;50.832;4.080;2023-06-22T02:23:06;19.90;27.90
20284;DHT22;10301;50.832;4.080;2023-06-22T02:25:33;20.00;25.00
20284;DHT22;10301;50.832;4.080;2023-06-22T02:27:58;20.20;13.40
20284;DHT22;10301;50.832;4.080;2023-06-22T02:30:24;20.20;1.00
20284;DHT22;10301;50.832;4.080;2023-06-22T02:32:50;20.10;3.90
20284;DHT22;10301;50.832;4.080;2023-06-22T02:35:28;19.90;11.30
20284;DHT22;10301;50.832;4.080;2023-06-22T02:37:58;20.00;16.60
20284;DHT22;10301;50.832;4.080;2023-06-22T02:40:25;20.00;17.90
20284;DHT22;10301;50.832;4.080;2023-06-22T02:42:50;20.00;16.50
20284;DHT22;10301;50.832;4.080;2023-06-22T02:45:16;20.10;9.40
20284;DHT22;10301;50.832;4.080;2023-06-22T02:47:42;20.10;9.20
20284;DHT22;10301;50.832;4.080;2023-06-22T02:50:08;20.00;14.30
20284;DHT22;10301;50.832;4.080;2023-06-22T02:52:34;20.10;11.90
20284;DHT22;10301;50.832;4.080;2023-06-22T02:55:00;20.30;1.00
20284;DHT22;10301;50.832;4.080;2023-06-22T02:57:25;20.10;2.30
20284;DHT22;10301;50.832;4.080;2023-06-22T02:59:51;20.10;4.70
20284;DHT22;10301;50.832;4.080;2023-06-22T03:02:16;20.20;1.00
20284;DHT22;10301;50.832;4.080;2023-06-22T03:04:43;20.10;6.10
20284;DHT22;10301;50.832;4.080;2023-06-22T03:07:08;20.20;5.70
20284;DHT22;10301;50.832;4.080;2023-06-22T03:09:34;20.20;3.30
20284;DHT22;10301;50.832;4.080;2023-06-22T03:12:00;20.30;1.10
20284;DHT22;10301;50.832;4.080;2023-06-22T03:14:27;20.50;1.00
20284;DHT22;10301;50.832;4.080;2023-06-22T03:16:53;20.60;1.00
20284;DHT22;10301;50.832;4.080;2023-06-22T03:19:18;20.60;1.00
20284;DHT22;10301;50.832;4.080;2023-06-22T03:21:45;20.50;1.00
20284;DHT22;10301;50.832;4.080;2023-06-22T03:24:11;20.40;1.00
20284;DHT22;10301;50.832;4.080;2023-06-22T03:26:36;20.20;1.00
20284;DHT22;10301;50.832;4.080;2023-06-22T03:29:02;20.20;3.90
20284;DHT22;10301;50.832;4.080;2023-06-22T03:31:28;20.20;2.90
20284;DHT22;10301;50.832;4.080;2023-06-22T03:33:54;20.00;5.70
20284;DHT22;10301;50.832;4.080;2023-06-22T03:36:19;19.90;9.10
20284;DHT22;10301;50.832;4.080;2023-06-22T03:38:46;19.60;24.40
20284;DHT22;10301;50.832;4.080;2023-06-22T03:41:12;19.40;33.00
20284;DHT22;10301;50.832;4.080;2023-06-22T03:43:38;19.50;34.10
20284;DHT22;10301;50.832;4.080;2023-06-22T03:46:03;19.40;34.10
20284;DHT22;10301;50.832;4.080;2023-06-22T03:48:29;19.50;32.50
20284;DHT22;10301;50.832;4.080;2023-06-22T03:50:55;19.80;14.90
20284;DHT22;10301;50.832;4.080;2023-06-22T03:53:20;20.10;5.20
20284;DHT22;10301;50.832;4.080;2023-06-22T03:55:50;20.10;4.00
20284;DHT22;10301;50.832;4.080;2023-06-22T03:58:18;20.10;3.00
20284;DHT22;10301;50.832;4.080;2023-06-22T04:00:50;20.20;6.10
20284;DHT22;10301;50.832;4.080;2023-06-22T04:03:16;20.10;14.70
20284;DHT22;10301;50.832;4.080;2023-06-22T04:05:44;20.00;23.00
20284;DHT22;10301;50.832;4.080;2023-06-22T04:08:10;20.00;26.00
20284;DHT22;10301;50.832;4.080;2023-06-22T04:10:36;19.90;30.00
20284;DHT22;10301;50.832;4.080;2023-06-22T04:13:01;20.00;27.70
20284;DHT22;10301;50.832;4.080;2023-06-22T04:15:27;20.00;29.00
20284;DHT22;10301;50.832;4.080;2023-06-22T04:17:55;20.00;29.40
20284;DHT22;10301;50.832;4.080;2023-06-22T04:20:21;20.00;31.20
20284;DHT22;10301;50.832;4.080;2023-06-22T04:22:47;20.10;28.70
20284;DHT22;10301;50.832;4.080;2023-06-22T04:25:12;20.10;26.90
20284;DHT22;10301;50.832;4.080;2023-06-22T04:27:38;20.20;26.10
20284;DHT22;10301;50.832;4.080;2023-06-22T04:30:07;20.20;24.90
20284;DHT22;10301;50.832;4.080;2023-06-22T04:32:36;20.30;22.50
20284;DHT22;10301;50.832;4.080;2023-06-22T04:35:03;20.40;16.00
20284;DHT22;10301;50.832;4.080;2023-06-22T04:37:30;20.50;13.70
20284;DHT22;10301;50.832;4.080;2023-06-22T04:39:56;20.50;11.90
20284;DHT22;10301;50.832;4.080;2023-06-22T04:42:22;20.50;10.40
20284;DHT22;10301;50.832;4.080;2023-06-22T04:44:47;20.50;11.20
20284;DHT22;10301;50.832;4.080;2023-06-22T04:47:13;20.60;7.50
20284;DHT22;10301;50.832;4.080;2023-06-22T04:49:39;20.50;13.10
20284;DHT22;10301;50.832;4.080;2023-06-22T04:52:10;20.70;7.80
20284;DHT22;10301;50.832;4.080;2023-06-22T04:54:38;20.80;4.30
20284;DHT22;10301;50.832;4.080;2023-06-22T04:57:05;20.90;1.00
20284;DHT22;10301;50.832;4.080;2023-06-22T04:59:35;20.90;1.00
20284;DHT22;10301;50.832;4.080;2023-06-22T05:02:02;21.00;1.00
20284;DHT22;10301;50.832;4.080;2023-06-22T05:04:29;21.00;1.00
20284;DHT22;10301;50.832;4.080;2023-06-22T05:06:59;21.20;1.00
20284;DHT22;10301;50.832;4.080;2023-06-22T05:09:25;21.30;1.00
20284;DHT22;10301;50.832;4.080;2023-06-22T05:11:51;21.40;1.00
20284;DHT22;10301;50.832;4.080;2023-06-22T05:14:17;21.50;1.00
20284;DHT22;10301;50.832;4.080;2023-06-22T05:16:44;21.60;1.00
20284;DHT22;10301;50.832;4.080;2023-06-22T05:19:10;21.60;1.00
20284;DHT22;10301;50.832;4.080;2023-06-22T05:21:36;21.70;1.00
20284;DHT22;10301;50.832;4.080;2023-06-22T05:24:01;21.60;1.00
20284;DHT22;10301;50.832;4.080;2023-06-22T05:26:29;21.50;1.00
20284;DHT22;10301;50.832;4.080;2023-06-22T05:28:55;21.60;1.00
20284;DHT22;10301;50.832;4.080;2023-06-22T05:31:21;21.50;1.00
20284;DHT22;10301;50.832;4.080;2023-06-22T05:33:48;21.50;1.00
20284;DHT22;10301;50.832;4.080;2023-06-22T05:36:15;21.60;1.00
20284;DHT22;10301;50.832;4.080;2023-06-22T05:38:41;21.60;1.00
20284;DHT22;10301;50.832;4.080;2023-06-22T05:41:07;21.80;1.00
20284;DHT22;10301;50.832;4.080;2023-06-22T05:43:33;21.70;1.00
20284;DHT22;10301;50.832;4.080;2023-06-22T05:46:00;21.70;1.00
20284;DHT22;10301;50.832;4.080;2023-06-22T05:48:26;21.70;1.00
20284;DHT22;10301;50.832;4.080;2023-06-22T05:50:53;21.70;1.00
20284;DHT22;10301;50.832;4.080;2023-06-22T05:53:18;21.70;1.00
20284;DHT22;10301;50.832;4.080;2023-06-22T05:55:44;21.70;1.00
20284;DHT22;10301;50.832;4.080;2023-06-22T05:58:10;21.50;1.00
20284;DHT22;10301;50.832;4.080;2023-06-22T06:00:36;21.10;1.00
20284;DHT22;10301;50.832;4.080;2023-06-22T06:03:02;21.00;1.00
20284;DHT22;10301;50.832;4.080;2023-06-22T06:05:32;21.40;1.00
20284;DHT22;10301;50.832;4.080;2023-06-22T06:08:00;21.80;1.00
20284;DHT22;10301;50.832;4.080;2023-06-22T06:10:26;21.40;1.00
20284;DHT22;10301;50.832;4.080;2023-06-22T06:12:52;21.50;1.00
20284;DHT22;10301;50.832;4.080;2023-06-22T06:15:18;21.70;1.00
20284;DHT22;10301;50.832;4.080;2023-06-22T06:17:51;21.80;1.00
20284;DHT22;10301;50.832;4.080;2023-06-22T06:20:24;21.70;1.00
20284;DHT22;10301;50.832;4.080;2023-06-22T06:22:50;21.60;1.00
20284;DHT22;10301;50.832;4.080;2023-06-22T06:25:16;21.90;1.00
20284;DHT22;10301;50.832;4.080;2023-06-22T06:27:47;21.80;1.00
20284;DHT22;10301;50.832;4.080;2023-06-22T06:30:15;22.00;1.00
20284;DHT22;10301;50.832;4.080;2023-06-22T06:32:42;21.90;1.00
20284;DHT22;10301;50.832;4.080;2023-06-22T06:35:11;22.00;1.00
20284;DHT22;10301;50.832;4.080;2023-06-22T06:37:38;22.50;1.00
20284;DHT22;10301;50.832;4.080;2023-06-22T06:40:09;22.60;1.00
20284;DHT22;10301;50.832;4.080;2023-06-22T06:42:43;22.70;1.00
20284;DHT22;10301;50.832;4.080;2023-06-22T06:45:31;22.80;1.00
20284;DHT22;10301;50.832;4.080;2023-06-22T06:47:58;22.70;1.00
20284;DHT22;10301;50.832;4.080;2023-06-22T06:50:24;22.50;1.00
20284;DHT22;10301;50.832;4.080;2023-06-22T06:52:49;22.40;1.00
20284;DHT22;10301;50.832;4.080;2023-06-22T06:55:18;22.40;1.00
20284;DHT22;10301;50.832;4.080;2023-06-22T06:57:44;22.20;1.00
20284;DHT22;10301;50.832;4.080;2023-06-22T07:00:14;22.00;1.00
20284;DHT22;10301;50.832;4.080;2023-06-22T07:02:42;21.50;1.00
20284;DHT22;10301;50.832;4.080;2023-06-22T07:05:09;21.50;2.70
20284;DHT22;10301;50.832;4.080;2023-06-22T07:07:35;21.50;1.00
20284;DHT22;10301;50.832;4.080;2023-06-22T07:10:01;21.80;1.00
20284;DHT22;10301;50.832;4.080;2023-06-22T07:12:26;22.10;1.00
20284;DHT22;10301;50.832;4.080;2023-06-22T07:14:53;22.40;1.00
20284;DHT22;10301;50.832;4.080;2023-06-22T07:17:19;22.60;1.00
20284;DHT22;10301;50.832;4.080;2023-06-22T07:19:45;22.70;1.00
20284;DHT22;10301;50.832;4.080;2023-06-22T07:22:10;22.70;1.00
20284;DHT22;10301;50.832;4.080;2023-06-22T07:24:36;22.30;1.00
20284;DHT22;10301;50.832;4.080;2023-06-22T07:27:03;22.50;1.00
20284;DHT22;10301;50.832;4.080;2023-06-22T07:29:29;22.50;1.00
20284;DHT22;10301;50.832;4.080;2023-06-22T07:31:55;22.50;1.00
20284;DHT22;10301;50.832;4.080;2023-06-22T07:34:22;22.30;1.00
20284;DHT22;10301;50.832;4.080;2023-06-22T07:36:48;22.10;1.00
20284;DHT22;10301;50.832;4.080;2023-06-22T07:39:13;22.30;1.00
20284;DHT22;10301;50.832;4.080;2023-06-22T07:41:40;22.20;1.00
20284;DHT22;10301;50.832;4.080;2023-06-22T07:44:06;22.30;1.00
20284;DHT22;10301;50.832;4.080;2023-06-22T07:46:32;22.20;1.00
20284;DHT22;10301;50.832;4.080;2023-06-22T07:48:58;22.50;1.00
20284;DHT22;10301;50.832;4.080;2023-06-22T07:51:25;22.90;1.00
20284;DHT22;10301;50.832;4.080;2023-06-22T07:53:50;23.00;1.00
20284;DHT22;10301;50.832;4.080;2023-06-22T07:56:16;22.60;1.00
20284;DHT22;10301;50.832;4.080;2023-06-22T07:58:46;22.60;1.00
20284;DHT22;10301;50.832;4.080;2023-06-22T08:01:15;22.60;1.00
20284;DHT22;10301;50.832;4.080;2023-06-22T08:03:42;22.30;1.00
20284;DHT22;10301;50.832;4.080;2023-06-22T08:06:07;22.80;1.00
20284;DHT22;10301;50.832;4.080;2023-06-22T08:08:35;23.20;1.00
20284;DHT22;10301;50.832;4.080;2023-06-22T08:11:01;23.30;1.00
20284;DHT22;10301;50.832;4.080;2023-06-22T08:13:27;23.20;1.00
20284;DHT22;10301;50.832;4.080;2023-06-22T08:15:52;23.00;1.00
20284;DHT22;10301;50.832;4.080;2023-06-22T08:18:18;23.20;1.00
20284;DHT22;10301;50.832;4.080;2023-06-22T08:20:43;23.20;1.00
20284;DHT22;10301;50.832;4.080;2023-06-22T08:23:09;23.30;1.00
20284;DHT22;10301;50.832;4.080;2023-06-22T08:25:35;23.20;1.00
20284;DHT22;10301;50.832;4.080;2023-06-22T08:28:04;23.00;1.00
20284;DHT22;10301;50.832;4.080;2023-06-22T08:30:30;23.10;1.00
20284;DHT22;10301;50.832;4.080;2023-06-22T08:32:55;23.10;1.00
20284;DHT22;10301;50.832;4.080;2023-06-22T08:35:24;23.10;1.00
20284;DHT22;10301;50.832;4.080;2023-06-22T08:37:50;23.20;1.00
20284;DHT22;10301;50.832;4.080;2023-06-22T08:40:18;22.80;1.00
20284;DHT22;10301;50.832;4.080;2023-06-22T08:42:45;23.00;1.00
20284;DHT22;10301;50.832;4.080;2023-06-22T08:45:12;23.10;1.00
20284;DHT22;10301;50.832;4.080;2023-06-22T08:47:38;22.80;1.00
20284;DHT22;10301;50.832;4.080;2023-06-22T08:50:04;22.40;1.00
20284;DHT22;10301;50.832;4.080;2023-06-22T08:52:31;22.20;1.00
20284;DHT22;10301;50.832;4.080;2023-06-22T08:54:56;22.40;1.00
20284;DHT22;10301;50.832;4.080;2023-06-22T08:57:23;22.70;1.00
20284;DHT22;10301;50.832;4.080;2023-06-22T08:59:49;22.30;1.00
20284;DHT22;10301;50.832;4.080;2023-06-22T09:02:18;22.20;1.00
20284;DHT22;10301;50.832;4.080;2023-06-22T09:04:47;22.40;1.00
20284;DHT22;10301;50.832;4.080;2023-06-22T09:07:14;22.80;1.00
20284;DHT22;10301;50.832;4.080;2023-06-22T09:09:39;23.10;1.00
20284;DHT22;10301;50.832;4.080;2023-06-22T09:12:05;23.20;1.00
20284;DHT22;10301;50.832;4.080;2023-06-22T09:14:31;23.30;1.00
20284;DHT22;10301;50.832;4.080;2023-06-22T09:16:57;23.40;1.00
20284;DHT22;10301;50.832;4.080;2023-06-22T09:19:23;23.40;1.00
20284;DHT22;10301;50.832;4.080;2023-06-22T09:21:48;23.30;1.00
20284;DHT22;10301;50.832;4.080;2023-06-22T09:24:14;23.20;1.00
20284;DHT22;10301;50.832;4.080;2023-06-22T09:26:40;22.80;1.00
20284;DHT22;10301;50.832;4.080;2023-06-22T09:29:06;23.00;1.00
20284;DHT22;10301;50.832;4.080;2023-06-22T09:31:31;22.80;1.00
20284;DHT22;10301;50.832;4.080;2023-06-22T09:33:57;22.80;1.00
20284;DHT22;10301;50.832;4.080;2023-06-22T09:36:23;22.60;1.00
20284;DHT22;10301;50.832;4.080;2023-06-22T09:38:49;22.40;8.70
20284;DHT22;10301;50.832;4.080;2023-06-22T09:41:20;22.40;15.00
20284;DHT22;10301;50.832;4.080;2023-06-22T09:43:46;22.50;27.60
20284;DHT22;10301;50.832;4.080;2023-06-22T09:46:14;22.60;38.30
20284;DHT22;10301;50.832;4.080;2023-06-22T09:48:40;22.50;30.20
20284;DHT22;10301;50.832;4.080;2023-06-22T09:51:06;22.50;33.80
20284;DHT22;10301;50.832;4.080;2023-06-22T09:53:32;22.50;41.50
20284;DHT22;10301;50.832;4.080;2023-06-22T09:55:57;22.50;52.40
20284;DHT22;10301;50.832;4.080;2023-06-22T09:58:23;22.30;65.70
20284;DHT22;10301;50.832;4.080;2023-06-22T10:00:48;22.20;60.90
20284;DHT22;10301;50.832;4.080;2023-06-22T10:03:14;21.90;72.40
20284;DHT22;10301;50.832;4.080;2023-06-22T10:05:40;21.60;75.00
20284;DHT22;10301;50.832;4.080;2023-06-22T10:08:05;21.40;82.50
20284;DHT22;10301;50.832;4.080;2023-06-22T10:10:33;21.20;85.00
20284;DHT22;10301;50.832;4.080;2023-06-22T10:13:07;21.00;72.80
20284;DHT22;10301;50.832;4.080;2023-06-22T10:15:34;20.40;80.40
20284;DHT22;10301;50.832;4.080;2023-06-22T10:18:00;19.40;78.90
20284;DHT22;10301;50.832;4.080;2023-06-22T10:20:25;18.70;92.00
20284;DHT22;10301;50.832;4.080;2023-06-22T10:22:51;18.50;99.20
20284;DHT22;10301;50.832;4.080;2023-06-22T10:25:17;18.60;99.90
20284;DHT22;10301;50.832;4.080;2023-06-22T10:27:43;18.50;99.90
20284;DHT22;10301;50.832;4.080;2023-06-22T10:30:11;18.70;99.90
20284;DHT22;10301;50.832;4.080;2023-06-22T10:32:41;18.80;99.90
20284;DHT22;10301;50.832;4.080;2023-06-22T10:35:08;18.80;99.90
20284;DHT22;10301;50.832;4.080;2023-06-22T10:37:36;19.00;99.90
20284;DHT22;10301;50.832;4.080;2023-06-22T10:40:02;19.20;99.90
20284;DHT22;10301;50.832;4.080;2023-06-22T10:42:29;19.20;99.90
20284;DHT22;10301;50.832;4.080;2023-06-22T10:44:54;19.00;99.90
20284;DHT22;10301;50.832;4.080;2023-06-22T10:47:20;18.30;99.90
20284;DHT22;10301;50.832;4.080;2023-06-22T10:49:46;18.00;99.90
20284;DHT22;10301;50.832;4.080;2023-06-22T10:52:11;18.00;99.90
20284;DHT22;10301;50.832;4.080;2023-06-22T10:54:37;18.00;99.90
20284;DHT22;10301;50.832;4.080;2023-06-22T10:57:03;18.20;99.90
20284;DHT22;10301;50.832;4.080;2023-06-22T10:59:29;18.00;99.90
20284;DHT22;10301;50.832;4.080;2023-06-22T11:01:56;18.00;99.90
20284;DHT22;10301;50.832;4.080;2023-06-22T11:04:22;18.10;99.90
20284;DHT22;10301;50.832;4.080;2023-06-22T11:06:48;18.10;99.90
20284;DHT22;10301;50.832;4.080;2023-06-22T11:09:15;18.40;99.90
20284;DHT22;10301;50.832;4.080;2023-06-22T11:11:49;18.60;99.90
20284;DHT22;10301;50.832;4.080;2023-06-22T11:14:15;18.70;99.90
20284;DHT22;10301;50.832;4.080;2023-06-22T11:16:41;18.80;99.90
20284;DHT22;10301;50.832;4.080;2023-06-22T11:19:07;18.70;99.90
20284;DHT22;10301;50.832;4.080;2023-06-22T11:21:32;18.90;99.90
20284;DHT22;10301;50.832;4.080;2023-06-22T11:23:59;19.10;99.90
20284;DHT22;10301;50.832;4.080;2023-06-22T11:26:25;18.80;99.90
20284;DHT22;10301;50.832;4.080;2023-06-22T11:28:53;18.80;99.90
20284;DHT22;10301;50.832;4.080;2023-06-22T11:31:18;19.00;99.90
20284;DHT22;10301;50.832;4.080;2023-06-22T11:33:44;19.20;99.90
20284;DHT22;10301;50.832;4.080;2023-06-22T11:36:14;19.30;99.90
20284;DHT22;10301;50.832;4.080;2023-06-22T11:38:40;19.30;99.90
20284;DHT22;10301;50.832;4.080;2023-06-22T11:41:09;19.40;99.90
20284;DHT22;10301;50.832;4.080;2023-06-22T11:43:35;19.40;99.90
20284;DHT22;10301;50.832;4.080;2023-06-22T11:46:02;19.60;99.90
20284;DHT22;10301;50.832;4.080;2023-06-22T11:48:28;19.50;99.90
20284;DHT22;10301;50.832;4.080;2023-06-22T11:50:54;19.50;99.90
20284;DHT22;10301;50.832;4.080;2023-06-22T11:53:25;19.50;99.90
20284;DHT22;10301;50.832;4.080;2023-06-22T11:55:51;19.40;99.90
20284;DHT22;10301;50.832;4.080;2023-06-22T11:58:18;19.30;99.90
20284;DHT22;10301;50.832;4.080;2023-06-22T12:00:43;19.20;99.90
20284;DHT22;10301;50.832;4.080;2023-06-22T12:03:10;19.50;99.90
20284;DHT22;10301;50.832;4.080;2023-06-22T12:05:37;19.60;99.90
20284;DHT22;10301;50.832;4.080;2023-06-22T12:08:03;19.80;99.90
20284;DHT22;10301;50.832;4.080;2023-06-22T12:10:29;19.80;99.90
20284;DHT22;10301;50.832;4.080;2023-06-22T12:12:55;19.90;99.90
20284;DHT22;10301;50.832;4.080;2023-06-22T12:15:20;20.00;99.90
20284;DHT22;10301;50.832;4.080;2023-06-22T12:17:46;20.10;99.90
20284;DHT22;10301;50.832;4.080;2023-06-22T12:20:13;20.20;99.90
20284;DHT22;10301;50.832;4.080;2023-06-22T12:22:40;20.10;99.90
20284;DHT22;10301;50.832;4.080;2023-06-22T12:25:07;20.20;99.90
20284;DHT22;10301;50.832;4.080;2023-06-22T12:27:33;20.00;99.90
20284;DHT22;10301;50.832;4.080;2023-06-22T12:29:59;19.80;99.90
20284;DHT22;10301;50.832;4.080;2023-06-22T12:32:25;19.70;99.90
20284;DHT22;10301;50.832;4.080;2023-06-22T12:34:51;19.50;99.90
20284;DHT22;10301;50.832;4.080;2023-06-22T12:37:16;19.60;99.90
20284;DHT22;10301;50.832;4.080;2023-06-22T12:39:42;19.40;99.90
20284;DHT22;10301;50.832;4.080;2023-06-22T12:42:08;19.40;99.90
20284;DHT22;10301;50.832;4.080;2023-06-22T12:44:38;19.40;99.90
20284;DHT22;10301;50.832;4.080;2023-06-22T12:47:04;19.30;99.90
20284;DHT22;10301;50.832;4.080;2023-06-22T12:49:30;19.40;99.90
20284;DHT22;10301;50.832;4.080;2023-06-22T12:51:55;19.30;99.90
20284;DHT22;10301;50.832;4.080;2023-06-22T12:54:21;19.20;99.90
20284;DHT22;10301;50.832;4.080;2023-06-22T12:56:47;19.10;99.90
20284;DHT22;10301;50.832;4.080;2023-06-22T12:59:12;19.10;99.90
20284;DHT22;10301;50.832;4.080;2023-06-22T13:01:38;19.20;99.90
20284;DHT22;10301;50.832;4.080;2023-06-22T13:04:04;19.20;99.90
20284;DHT22;10301;50.832;4.080;2023-06-22T13:06:30;19.30;99.90
20284;DHT22;10301;50.832;4.080;2023-06-22T13:08:56;19.20;99.90
20284;DHT22;10301;50.832;4.080;2023-06-22T13:11:22;19.10;99.90
20284;DHT22;10301;50.832;4.080;2023-06-22T13:13:47;18.90;99.90
20284;DHT22;10301;50.832;4.080;2023-06-22T13:16:13;18.80;99.90
20284;DHT22;10301;50.832;4.080;2023-06-22T13:18:38;18.80;99.90
20284;DHT22;10301;50.832;4.080;2023-06-22T13:21:04;18.80;99.90
20284;DHT22;10301;50.832;4.080;2023-06-22T13:23:30;19.00;99.90
20284;DHT22;10301;50.832;4.080;2023-06-22T13:25:57;19.10;99.90
20284;DHT22;10301;50.832;4.080;2023-06-22T13:28:22;19.00;99.90
20284;DHT22;10301;50.832;4.080;2023-06-22T13:30:48;19.00;99.90
20284;DHT22;10301;50.832;4.080;2023-06-22T13:33:14;19.00;99.90
20284;DHT22;10301;50.832;4.080;2023-06-22T13:35:40;19.00;99.90
20284;DHT22;10301;50.832;4.080;2023-06-22T13:38:10;18.90;99.90
20284;DHT22;10301;50.832;4.080;2023-06-22T13:40:37;19.00;99.90
20284;DHT22;10301;50.832;4.080;2023-06-22T13:43:04;18.90;99.90
20284;DHT22;10301;50.832;4.080;2023-06-22T13:45:30;18.90;99.90
20284;DHT22;10301;50.832;4.080;2023-06-22T13:47:55;19.00;99.90
20284;DHT22;10301;50.832;4.080;2023-06-22T13:50:21;19.00;99.90
20284;DHT22;10301;50.832;4.080;2023-06-22T13:52:47;19.20;99.90
20284;DHT22;10301;50.832;4.080;2023-06-22T13:55:12;19.10;99.90
20284;DHT22;10301;50.832;4.080;2023-06-22T13:57:40;19.00;99.90
20284;DHT22;10301;50.832;4.080;2023-06-22T14:00:06;18.90;99.90
20284;DHT22;10301;50.832;4.080;2023-06-22T14:02:33;18.90;99.90
20284;DHT22;10301;50.832;4.080;2023-06-22T14:04:59;18.80;99.90
20284;DHT22;10301;50.832;4.080;2023-06-22T14:07:25;18.90;99.90
20284;DHT22;10301;50.832;4.080;2023-06-22T14:09:50;19.20;99.90
20284;DHT22;10301;50.832;4.080;2023-06-22T14:12:17;19.20;99.90
20284;DHT22;10301;50.832;4.080;2023-06-22T14:14:46;19.20;99.90
20284;DHT22;10301;50.832;4.080;2023-06-22T14:17:11;19.10;99.90
20284;DHT22;10301;50.832;4.080;2023-06-22T14:19:37;19.30;99.90
20284;DHT22;10301;50.832;4.080;2023-06-22T14:22:03;19.40;99.90
20284;DHT22;10301;50.832;4.080;2023-06-22T14:24:29;19.50;99.90
20284;DHT22;10301;50.832;4.080;2023-06-22T14:26:55;19.50;99.90
20284;DHT22;10301;50.832;4.080;2023-06-22T14:29:22;19.60;99.90
20284;DHT22;10301;50.832;4.080;2023-06-22T14:31:48;19.70;99.90
20284;DHT22;10301;50.832;4.080;2023-06-22T14:34:14;19.60;99.90
20284;DHT22;10301;50.832;4.080;2023-06-22T14:36:40;19.70;99.90
20284;DHT22;10301;50.832;4.080;2023-06-22T14:39:06;19.40;99.90
20284;DHT22;10301;50.832;4.080;2023-06-22T14:41:32;19.50;99.90
20284;DHT22;10301;50.832;4.080;2023-06-22T14:43:58;19.70;99.90
20284;DHT22;10301;50.832;4.080;2023-06-22T14:46:23;19.60;99.90
20284;DHT22;10301;50.832;4.080;2023-06-22T14:48:49;19.30;99.90
20284;DHT22;10301;50.832;4.080;2023-06-22T14:51:15;19.00;99.90
20284;DHT22;10301;50.832;4.080;2023-06-22T14:53:41;19.00;99.90
20284;DHT22;10301;50.832;4.080;2023-06-22T14:56:07;19.20;99.90
20284;DHT22;10301;50.832;4.080;2023-06-22T14:58:33;19.10;99.90
20284;DHT22;10301;50.832;4.080;2023-06-22T15:01:00;19.30;99.90
20284;DHT22;10301;50.832;4.080;2023-06-22T15:03:25;19.40;99.90
20284;DHT22;10301;50.832;4.080;2023-06-22T15:05:54;19.40;99.90
20284;DHT22;10301;50.832;4.080;2023-06-22T15:08:20;19.70;99.90
20284;DHT22;10301;50.832;4.080;2023-06-22T15:10:46;19.60;99.90
20284;DHT22;10301;50.832;4.080;2023-06-22T15:13:12;19.50;99.90
20284;DHT22;10301;50.832;4.080;2023-06-22T15:15:38;19.60;99.90
20284;DHT22;10301;50.832;4.080;2023-06-22T15:18:03;19.80;99.90
20284;DHT22;10301;50.832;4.080;2023-06-22T15:20:29;19.70;99.90
20284;DHT22;10301;50.832;4.080;2023-06-22T15:22:56;19.90;99.90
20284;DHT22;10301;50.832;4.080;2023-06-22T15:25:21;20.10;99.90
20284;DHT22;10301;50.832;4.080;2023-06-22T15:27:47;20.10;99.90
20284;DHT22;10301;50.832;4.080;2023-06-22T15:30:13;20.20;99.90
20284;DHT22;10301;50.832;4.080;2023-06-22T15:32:38;20.10;99.90
20284;DHT22;10301;50.832;4.080;2023-06-22T15:35:08;20.30;99.90
20284;DHT22;10301;50.832;4.080;2023-06-22T15:37:34;20.40;99.90
20284;DHT22;10301;50.832;4.080;2023-06-22T15:39:59;20.50;99.90
20284;DHT22;10301;50.832;4.080;2023-06-22T15:42:25;20.60;99.90